Terminal Aerodrome Forecast
Issued by NWS St Louis, MO

Home | Current Version | Previous Version | Text Only | Print | Product List | Glossary On
Versions: 1 2 3 4 5 6 7 8 9 10 11 12 13 14 15 16 17 18 19
000
FTUS43 KLSX 040520
TAFCOU
TAF
KCOU 040520Z 0406/0506 VRB04KT P6SM FEW040 SCT250
     FM040900 10005KT P6SM VCTS BKN050CB
     FM041300 VRB04KT P6SM FEW050 SCT250
     FM041900 16005KT P6SM VCTS SCT040CB SCT250=

USA.gov is the U.S. government's official web portal to all federal, state and local government web resources and services.